Portada
METAR-TAF:

METAR-TAF

Aeroports :

Benarés, Índia

latitud: 25-27N, longitud: 082-52E, altitud: 81 m

Observació

L'informe es va fer fa 2 hores i 15 minuts, a les 18:00 UTC
Vent calma
Temperatura 29°C
Humitat 52%
Pressió 1000 hPa
Visibilitat: 3000 m
calitja

METAR: VEBN 261800Z 00000KT 3000 HZ NSC 29/18 Q1000 NOSIG

Hora: 01:45 (20:15 UTC)

Pronòstic

L'informe es va fer fa 3 hores i 15 minuts, a les 17:00 UTC
Pronòstic vàlid del 26 a les 18 UTC al 27 a les 03 UTC
Vent 3 kt del Est
Visibilitat: 3000 m
Escasses núvols a una alçada de 2000 ft
Núvols disperses a una alçada de 10000 ft
calitja
Evolucionant progressivament
l' 27 a les 00 UTC al 27 a les 02 UTC
Vent 2 kt amb direcció variable
Visibilitat: 2000 m
calitja

TAF: VEBN 261700Z 2618/2703 10003KT 3000 HZ FEW020 SCT100 BECMG 2700/2702 VRB02KT 2000 HZ

Observacions i pronòstics meteorològics de més de 4000 aeroports (METAR i TAF).

Les estacions disponibles són els punts grocs i vermells al mapa.

Posi el ratolí al punt desitjat per veure el nom de l'estació.

Feu clic per veure les observacions i els pronòstics meteorològics.

Per canviar el mapa: feu clic els botons verds amb una creu de color negre per apropar; al botó verd amb un guió per allunyar la imatge; o en les fletxes verdes per a mapes adjacents.


METAR-TAF: